sensor_id;sensor_type;location;lat;lon;timestamp;P1;durP1;ratioP1;P2;durP2;ratioP2
67762;SDS011;54566;52.022;5.582;2022-08-14T00:00:18;7.95;;;4.43;;
67762;SDS011;54566;52.022;5.582;2022-08-14T00:02:45;8.67;;;4.43;;
67762;SDS011;54566;52.022;5.582;2022-08-14T00:05:13;13.32;;;5.00;;
67762;SDS011;54566;52.022;5.582;2022-08-14T00:07:39;7.43;;;4.68;;
67762;SDS011;54566;52.022;5.582;2022-08-14T00:10:06;8.40;;;4.97;;
67762;SDS011;54566;52.022;5.582;2022-08-14T00:12:34;6.75;;;4.28;;
67762;SDS011;54566;52.022;5.582;2022-08-14T00:15:01;9.40;;;5.05;;
67762;SDS011;54566;52.022;5.582;2022-08-14T00:19:54;5.82;;;4.43;;
67762;SDS011;54566;52.022;5.582;2022-08-14T00:22:20;6.55;;;4.43;;
67762;SDS011;54566;52.022;5.582;2022-08-14T00:24:46;9.82;;;4.57;;
67762;SDS011;54566;52.022;5.582;2022-08-14T00:27:12;11.38;;;5.28;;
67762;SDS011;54566;52.022;5.582;2022-08-14T00:29:38;8.93;;;4.47;;
67762;SDS011;54566;52.022;5.582;2022-08-14T00:32:04;10.50;;;4.55;;
67762;SDS011;54566;52.022;5.582;2022-08-14T00:34:31;11.15;;;7.90;;
67762;SDS011;54566;52.022;5.582;2022-08-14T00:36:57;13.02;;;6.40;;
67762;SDS011;54566;52.022;5.582;2022-08-14T00:39:23;6.55;;;5.57;;
67762;SDS011;54566;52.022;5.582;2022-08-14T00:41:49;11.43;;;5.30;;
67762;SDS011;54566;52.022;5.582;2022-08-14T00:44:15;8.48;;;4.80;;
67762;SDS011;54566;52.022;5.582;2022-08-14T00:46:41;6.38;;;4.90;;
67762;SDS011;54566;52.022;5.582;2022-08-14T00:49:09;6.38;;;5.25;;
67762;SDS011;54566;52.022;5.582;2022-08-14T00:51:36;9.38;;;5.10;;
67762;SDS011;54566;52.022;5.582;2022-08-14T00:54:02;6.13;;;4.90;;
67762;SDS011;54566;52.022;5.582;2022-08-14T00:56:29;10.43;;;5.20;;
67762;SDS011;54566;52.022;5.582;2022-08-14T00:58:55;7.97;;;5.68;;
67762;SDS011;54566;52.022;5.582;2022-08-14T01:01:22;6.40;;;5.13;;
67762;SDS011;54566;52.022;5.582;2022-08-14T01:03:48;9.73;;;5.13;;
67762;SDS011;54566;52.022;5.582;2022-08-14T01:06:15;8.73;;;5.00;;
67762;SDS011;54566;52.022;5.582;2022-08-14T01:08:42;6.27;;;5.23;;
67762;SDS011;54566;52.022;5.582;2022-08-14T01:11:09;8.38;;;4.90;;
67762;SDS011;54566;52.022;5.582;2022-08-14T01:13:40;6.97;;;5.00;;
67762;SDS011;54566;52.022;5.582;2022-08-14T01:16:07;13.35;;;5.47;;
67762;SDS011;54566;52.022;5.582;2022-08-14T01:18:33;9.10;;;5.07;;
67762;SDS011;54566;52.022;5.582;2022-08-14T01:21:51;9.52;;;5.35;;
67762;SDS011;54566;52.022;5.582;2022-08-14T01:24:11;8.02;;;5.10;;
67762;SDS011;54566;52.022;5.582;2022-08-14T01:26:40;6.18;;;5.25;;
67762;SDS011;54566;52.022;5.582;2022-08-14T01:29:07;8.75;;;5.68;;
67762;SDS011;54566;52.022;5.582;2022-08-14T01:31:35;9.80;;;6.00;;
67762;SDS011;54566;52.022;5.582;2022-08-14T01:34:11;7.10;;;5.50;;
67762;SDS011;54566;52.022;5.582;2022-08-14T01:36:37;7.88;;;5.15;;
67762;SDS011;54566;52.022;5.582;2022-08-14T01:39:04;7.75;;;5.70;;
67762;SDS011;54566;52.022;5.582;2022-08-14T01:41:31;7.10;;;6.15;;
67762;SDS011;54566;52.022;5.582;2022-08-14T01:43:58;6.22;;;5.22;;
67762;SDS011;54566;52.022;5.582;2022-08-14T01:46:26;9.43;;;5.70;;
67762;SDS011;54566;52.022;5.582;2022-08-14T01:48:52;8.27;;;6.10;;
67762;SDS011;54566;52.022;5.582;2022-08-14T01:51:18;7.78;;;5.35;;
67762;SDS011;54566;52.022;5.582;2022-08-14T01:53:47;9.20;;;5.57;;
67762;SDS011;54566;52.022;5.582;2022-08-14T01:56:15;10.32;;;6.22;;
67762;SDS011;54566;52.022;5.582;2022-08-14T01:58:45;9.35;;;6.55;;
67762;SDS011;54566;52.022;5.582;2022-08-14T02:01:15;7.55;;;5.68;;
67762;SDS011;54566;52.022;5.582;2022-08-14T02:03:41;8.45;;;5.75;;
67762;SDS011;54566;52.022;5.582;2022-08-14T02:06:07;7.40;;;5.82;;
67762;SDS011;54566;52.022;5.582;2022-08-14T02:08:35;8.75;;;5.68;;
67762;SDS011;54566;52.022;5.582;2022-08-14T02:11:02;6.28;;;5.63;;
67762;SDS011;54566;52.022;5.582;2022-08-14T02:13:45;6.90;;;5.72;;
67762;SDS011;54566;52.022;5.582;2022-08-14T02:16:12;6.13;;;5.47;;
67762;SDS011;54566;52.022;5.582;2022-08-14T02:18:40;6.93;;;5.70;;
67762;SDS011;54566;52.022;5.582;2022-08-14T02:21:06;10.75;;;5.93;;
67762;SDS011;54566;52.022;5.582;2022-08-14T02:23:33;11.98;;;6.13;;
67762;SDS011;54566;52.022;5.582;2022-08-14T02:26:00;14.48;;;6.30;;
67762;SDS011;54566;52.022;5.582;2022-08-14T02:28:27;7.07;;;5.68;;
67762;SDS011;54566;52.022;5.582;2022-08-14T02:30:58;7.78;;;5.60;;
67762;SDS011;54566;52.022;5.582;2022-08-14T02:33:24;11.93;;;5.90;;
67762;SDS011;54566;52.022;5.582;2022-08-14T02:35:51;10.98;;;6.50;;
67762;SDS011;54566;52.022;5.582;2022-08-14T02:38:19;7.88;;;6.38;;
67762;SDS011;54566;52.022;5.582;2022-08-14T02:40:45;8.60;;;5.85;;
67762;SDS011;54566;52.022;5.582;2022-08-14T02:43:12;14.07;;;6.22;;
67762;SDS011;54566;52.022;5.582;2022-08-14T02:45:38;11.48;;;6.55;;
67762;SDS011;54566;52.022;5.582;2022-08-14T02:48:05;8.20;;;6.00;;
67762;SDS011;54566;52.022;5.582;2022-08-14T02:50:31;11.80;;;6.50;;
67762;SDS011;54566;52.022;5.582;2022-08-14T02:53:01;8.18;;;6.35;;
67762;SDS011;54566;52.022;5.582;2022-08-14T02:55:27;9.48;;;6.75;;
67762;SDS011;54566;52.022;5.582;2022-08-14T02:57:54;11.43;;;6.43;;
67762;SDS011;54566;52.022;5.582;2022-08-14T03:00:21;8.85;;;6.57;;
67762;SDS011;54566;52.022;5.582;2022-08-14T03:02:47;9.98;;;6.30;;
67762;SDS011;54566;52.022;5.582;2022-08-14T03:05:15;7.90;;;6.20;;
67762;SDS011;54566;52.022;5.582;2022-08-14T03:07:41;14.60;;;6.25;;
67762;SDS011;54566;52.022;5.582;2022-08-14T03:10:08;16.48;;;7.00;;
67762;SDS011;54566;52.022;5.582;2022-08-14T03:12:34;10.93;;;6.82;;
67762;SDS011;54566;52.022;5.582;2022-08-14T03:15:01;8.68;;;6.88;;
67762;SDS011;54566;52.022;5.582;2022-08-14T03:17:34;23.83;;;7.40;;
67762;SDS011;54566;52.022;5.582;2022-08-14T03:20:00;14.95;;;7.20;;
67762;SDS011;54566;52.022;5.582;2022-08-14T03:22:28;11.30;;;8.30;;
67762;SDS011;54566;52.022;5.582;2022-08-14T03:24:54;8.52;;;7.43;;
67762;SDS011;54566;52.022;5.582;2022-08-14T03:27:20;10.02;;;7.20;;
67762;SDS011;54566;52.022;5.582;2022-08-14T03:29:46;8.10;;;6.57;;
67762;SDS011;54566;52.022;5.582;2022-08-14T03:32:12;10.38;;;6.20;;
67762;SDS011;54566;52.022;5.582;2022-08-14T03:34:38;9.10;;;7.03;;
67762;SDS011;54566;52.022;5.582;2022-08-14T03:37:04;7.80;;;6.57;;
67762;SDS011;54566;52.022;5.582;2022-08-14T03:39:30;6.90;;;6.20;;
67762;SDS011;54566;52.022;5.582;2022-08-14T03:41:56;8.82;;;6.22;;
67762;SDS011;54566;52.022;5.582;2022-08-14T03:44:22;9.88;;;6.05;;
67762;SDS011;54566;52.022;5.582;2022-08-14T03:46:49;11.07;;;5.68;;
67762;SDS011;54566;52.022;5.582;2022-08-14T03:49:15;8.50;;;6.00;;
67762;SDS011;54566;52.022;5.582;2022-08-14T03:51:44;11.07;;;6.07;;
67762;SDS011;54566;52.022;5.582;2022-08-14T03:54:10;9.00;;;6.10;;
67762;SDS011;54566;52.022;5.582;2022-08-14T03:56:36;8.10;;;6.13;;
67762;SDS011;54566;52.022;5.582;2022-08-14T03:59:07;10.23;;;6.15;;
67762;SDS011;54566;52.022;5.582;2022-08-14T04:01:35;7.90;;;6.18;;
67762;SDS011;54566;52.022;5.582;2022-08-14T04:04:01;12.35;;;6.85;;
67762;SDS011;54566;52.022;5.582;2022-08-14T04:06:30;10.73;;;6.38;;
67762;SDS011;54566;52.022;5.582;2022-08-14T04:08:56;7.85;;;6.07;;
67762;SDS011;54566;52.022;5.582;2022-08-14T04:11:22;8.95;;;6.10;;
67762;SDS011;54566;52.022;5.582;2022-08-14T04:13:48;18.30;;;6.35;;
67762;SDS011;54566;52.022;5.582;2022-08-14T04:16:16;9.88;;;6.38;;
67762;SDS011;54566;52.022;5.582;2022-08-14T04:18:44;7.60;;;6.80;;
67762;SDS011;54566;52.022;5.582;2022-08-14T04:21:11;14.50;;;7.80;;
67762;SDS011;54566;52.022;5.582;2022-08-14T04:23:38;10.95;;;7.35;;
67762;SDS011;54566;52.022;5.582;2022-08-14T04:26:05;12.05;;;6.97;;
67762;SDS011;54566;52.022;5.582;2022-08-14T04:28:32;10.18;;;6.95;;
67762;SDS011;54566;52.022;5.582;2022-08-14T04:30:57;10.07;;;6.97;;
67762;SDS011;54566;52.022;5.582;2022-08-14T04:33:23;10.10;;;6.85;;
67762;SDS011;54566;52.022;5.582;2022-08-14T04:35:49;13.13;;;7.32;;
67762;SDS011;54566;52.022;5.582;2022-08-14T04:38:16;10.73;;;6.60;;
67762;SDS011;54566;52.022;5.582;2022-08-14T04:41:01;8.25;;;6.65;;
67762;SDS011;54566;52.022;5.582;2022-08-14T04:43:45;8.93;;;7.28;;
67762;SDS011;54566;52.022;5.582;2022-08-14T04:46:15;14.15;;;7.05;;
67762;SDS011;54566;52.022;5.582;2022-08-14T04:48:42;11.93;;;7.28;;
67762;SDS011;54566;52.022;5.582;2022-08-14T04:51:09;9.20;;;7.28;;
67762;SDS011;54566;52.022;5.582;2022-08-14T04:53:36;10.57;;;7.47;;
67762;SDS011;54566;52.022;5.582;2022-08-14T04:56:04;11.93;;;7.70;;
67762;SDS011;54566;52.022;5.582;2022-08-14T04:58:31;17.67;;;8.38;;
67762;SDS011;54566;52.022;5.582;2022-08-14T05:00:57;17.88;;;8.18;;
67762;SDS011;54566;52.022;5.582;2022-08-14T05:03:24;16.77;;;8.77;;
67762;SDS011;54566;52.022;5.582;2022-08-14T05:05:51;14.07;;;7.77;;
67762;SDS011;54566;52.022;5.582;2022-08-14T05:08:17;20.38;;;8.13;;
67762;SDS011;54566;52.022;5.582;2022-08-14T05:10:48;19.27;;;8.35;;
67762;SDS011;54566;52.022;5.582;2022-08-14T05:13:18;25.15;;;8.25;;
67762;SDS011;54566;52.022;5.582;2022-08-14T05:15:44;20.88;;;8.40;;
67762;SDS011;54566;52.022;5.582;2022-08-14T05:18:17;19.70;;;8.23;;
67762;SDS011;54566;52.022;5.582;2022-08-14T05:20:45;14.43;;;8.73;;
67762;SDS011;54566;52.022;5.582;2022-08-14T05:23:12;11.02;;;8.48;;
67762;SDS011;54566;52.022;5.582;2022-08-14T05:25:38;13.13;;;7.70;;
67762;SDS011;54566;52.022;5.582;2022-08-14T05:28:05;10.43;;;8.50;;
67762;SDS011;54566;52.022;5.582;2022-08-14T05:30:31;22.67;;;8.68;;
67762;SDS011;54566;52.022;5.582;2022-08-14T05:32:58;10.50;;;8.10;;
67762;SDS011;54566;52.022;5.582;2022-08-14T05:35:25;13.73;;;8.17;;
67762;SDS011;54566;52.022;5.582;2022-08-14T05:37:51;16.70;;;8.88;;
67762;SDS011;54566;52.022;5.582;2022-08-14T05:40:17;12.55;;;9.15;;
67762;SDS011;54566;52.022;5.582;2022-08-14T05:42:43;14.02;;;8.85;;
67762;SDS011;54566;52.022;5.582;2022-08-14T05:45:09;19.85;;;8.18;;
67762;SDS011;54566;52.022;5.582;2022-08-14T05:47:38;23.73;;;9.15;;
67762;SDS011;54566;52.022;5.582;2022-08-14T05:50:06;16.63;;;8.87;;
67762;SDS011;54566;52.022;5.582;2022-08-14T05:52:32;23.15;;;8.75;;
67762;SDS011;54566;52.022;5.582;2022-08-14T05:54:58;15.80;;;8.23;;
67762;SDS011;54566;52.022;5.582;2022-08-14T05:57:24;15.93;;;8.77;;
67762;SDS011;54566;52.022;5.582;2022-08-14T05:59:51;17.10;;;8.90;;
67762;SDS011;54566;52.022;5.582;2022-08-14T06:02:17;14.13;;;9.02;;
67762;SDS011;54566;52.022;5.582;2022-08-14T06:04:43;12.77;;;9.05;;
67762;SDS011;54566;52.022;5.582;2022-08-14T06:07:12;14.13;;;8.90;;
67762;SDS011;54566;52.022;5.582;2022-08-14T06:09:38;14.70;;;8.73;;
67762;SDS011;54566;52.022;5.582;2022-08-14T06:12:04;14.05;;;8.18;;
67762;SDS011;54566;52.022;5.582;2022-08-14T06:14:30;15.80;;;8.55;;
67762;SDS011;54566;52.022;5.582;2022-08-14T06:16:56;10.60;;;8.57;;
67762;SDS011;54566;52.022;5.582;2022-08-14T06:19:22;18.65;;;9.80;;
67762;SDS011;54566;52.022;5.582;2022-08-14T06:21:49;14.25;;;8.57;;
67762;SDS011;54566;52.022;5.582;2022-08-14T06:24:15;11.25;;;8.63;;
67762;SDS011;54566;52.022;5.582;2022-08-14T06:26:41;9.27;;;8.00;;
67762;SDS011;54566;52.022;5.582;2022-08-14T06:29:07;16.63;;;9.10;;
67762;SDS011;54566;52.022;5.582;2022-08-14T06:31:34;13.65;;;8.55;;
67762;SDS011;54566;52.022;5.582;2022-08-14T06:34:00;16.23;;;9.20;;
67762;SDS011;54566;52.022;5.582;2022-08-14T06:39:30;12.45;;;8.32;;
67762;SDS011;54566;52.022;5.582;2022-08-14T06:41:58;13.82;;;8.68;;
67762;SDS011;54566;52.022;5.582;2022-08-14T06:47:17;12.32;;;9.05;;
67762;SDS011;54566;52.022;5.582;2022-08-14T06:49:43;11.93;;;8.40;;
67762;SDS011;54566;52.022;5.582;2022-08-14T06:52:09;10.18;;;8.52;;
67762;SDS011;54566;52.022;5.582;2022-08-14T06:54:35;12.50;;;8.35;;
67762;SDS011;54566;52.022;5.582;2022-08-14T06:57:01;14.05;;;7.88;;
67762;SDS011;54566;52.022;5.582;2022-08-14T06:59:27;15.15;;;9.13;;
67762;SDS011;54566;52.022;5.582;2022-08-14T07:04:57;12.63;;;7.70;;
67762;SDS011;54566;52.022;5.582;2022-08-14T07:07:41;16.50;;;8.57;;
67762;SDS011;54566;52.022;5.582;2022-08-14T07:10:08;12.85;;;7.47;;
67762;SDS011;54566;52.022;5.582;2022-08-14T07:12:35;16.05;;;8.20;;
67762;SDS011;54566;52.022;5.582;2022-08-14T07:15:01;10.73;;;8.10;;
67762;SDS011;54566;52.022;5.582;2022-08-14T07:17:27;11.63;;;8.02;;
67762;SDS011;54566;52.022;5.582;2022-08-14T07:19:53;12.32;;;7.90;;
67762;SDS011;54566;52.022;5.582;2022-08-14T07:22:19;9.75;;;7.18;;
67762;SDS011;54566;52.022;5.582;2022-08-14T07:24:46;9.65;;;7.28;;
67762;SDS011;54566;52.022;5.582;2022-08-14T07:30:15;10.68;;;7.00;;
67762;SDS011;54566;52.022;5.582;2022-08-14T07:32:41;17.75;;;7.03;;
67762;SDS011;54566;52.022;5.582;2022-08-14T07:35:07;12.60;;;6.65;;
67762;SDS011;54566;52.022;5.582;2022-08-14T07:37:33;12.30;;;6.78;;
67762;SDS011;54566;52.022;5.582;2022-08-14T07:40:00;8.23;;;6.13;;
67762;SDS011;54566;52.022;5.582;2022-08-14T07:42:26;8.05;;;6.35;;
67762;SDS011;54566;52.022;5.582;2022-08-14T07:44:53;9.25;;;6.53;;
67762;SDS011;54566;52.022;5.582;2022-08-14T07:47:19;9.60;;;6.20;;
67762;SDS011;54566;52.022;5.582;2022-08-14T07:49:57;9.45;;;6.43;;
67762;SDS011;54566;52.022;5.582;2022-08-14T07:55:28;8.65;;;6.03;;
67762;SDS011;54566;52.022;5.582;2022-08-14T07:57:54;10.45;;;6.35;;
67762;SDS011;54566;52.022;5.582;2022-08-14T08:00:21;9.50;;;6.30;;
67762;SDS011;54566;52.022;5.582;2022-08-14T08:02:48;8.55;;;6.28;;
67762;SDS011;54566;52.022;5.582;2022-08-14T08:05:16;10.70;;;6.03;;
67762;SDS011;54566;52.022;5.582;2022-08-14T08:07:42;9.05;;;5.80;;
67762;SDS011;54566;52.022;5.582;2022-08-14T08:13:14;10.98;;;6.15;;
67762;SDS011;54566;52.022;5.582;2022-08-14T08:15:45;7.10;;;5.65;;
67762;SDS011;54566;52.022;5.582;2022-08-14T08:18:11;9.00;;;5.93;;
67762;SDS011;54566;52.022;5.582;2022-08-14T08:23:42;6.63;;;5.55;;
67762;SDS011;54566;52.022;5.582;2022-08-14T08:26:08;7.05;;;5.38;;
67762;SDS011;54566;52.022;5.582;2022-08-14T08:28:34;5.95;;;5.35;;
67762;SDS011;54566;52.022;5.582;2022-08-14T08:31:01;10.68;;;5.57;;
67762;SDS011;54566;52.022;5.582;2022-08-14T08:33:28;7.65;;;5.65;;
67762;SDS011;54566;52.022;5.582;2022-08-14T08:39:01;8.73;;;5.43;;
67762;SDS011;54566;52.022;5.582;2022-08-14T08:41:37;9.40;;;5.75;;
67762;SDS011;54566;52.022;5.582;2022-08-14T08:44:03;7.97;;;5.72;;
67762;SDS011;54566;52.022;5.582;2022-08-14T08:46:29;10.43;;;6.47;;
67762;SDS011;54566;52.022;5.582;2022-08-14T08:48:55;11.45;;;6.05;;
67762;SDS011;54566;52.022;5.582;2022-08-14T08:51:23;10.35;;;5.35;;
67762;SDS011;54566;52.022;5.582;2022-08-14T08:54:03;12.15;;;5.60;;
67762;SDS011;54566;52.022;5.582;2022-08-14T08:56:42;7.60;;;5.50;;
67762;SDS011;54566;52.022;5.582;2022-08-14T08:59:22;7.50;;;5.20;;
67762;SDS011;54566;52.022;5.582;2022-08-14T09:01:49;7.45;;;5.28;;
67762;SDS011;54566;52.022;5.582;2022-08-14T09:06:42;9.43;;;5.80;;
67762;SDS011;54566;52.022;5.582;2022-08-14T09:11:44;7.40;;;5.80;;
67762;SDS011;54566;52.022;5.582;2022-08-14T09:14:10;8.88;;;5.43;;
67762;SDS011;54566;52.022;5.582;2022-08-14T09:16:36;7.50;;;5.43;;
67762;SDS011;54566;52.022;5.582;2022-08-14T09:19:02;8.88;;;5.38;;
67762;SDS011;54566;52.022;5.582;2022-08-14T09:21:28;8.68;;;5.50;;
67762;SDS011;54566;52.022;5.582;2022-08-14T09:23:55;11.07;;;5.90;;
67762;SDS011;54566;52.022;5.582;2022-08-14T09:26:21;9.15;;;5.80;;
67762;SDS011;54566;52.022;5.582;2022-08-14T09:28:47;8.65;;;5.43;;
67762;SDS011;54566;52.022;5.582;2022-08-14T09:31:13;8.35;;;5.60;;
67762;SDS011;54566;52.022;5.582;2022-08-14T09:44:16;10.35;;;5.20;;
67762;SDS011;54566;52.022;5.582;2022-08-14T09:46:35;14.90;;;5.22;;
67762;SDS011;54566;52.022;5.582;2022-08-14T09:49:03;7.75;;;5.07;;
67762;SDS011;54566;52.022;5.582;2022-08-14T09:51:29;11.70;;;5.32;;
67762;SDS011;54566;52.022;5.582;2022-08-14T09:54:05;7.68;;;4.50;;
67762;SDS011;54566;52.022;5.582;2022-08-14T09:59:11;10.50;;;5.30;;
67762;SDS011;54566;52.022;5.582;2022-08-14T10:01:38;7.53;;;5.00;;
67762;SDS011;54566;52.022;5.582;2022-08-14T10:04:26;8.20;;;4.68;;
67762;SDS011;54566;52.022;5.582;2022-08-14T10:09:17;6.32;;;4.65;;
67762;SDS011;54566;52.022;5.582;2022-08-14T10:11:53;8.10;;;4.80;;
67762;SDS011;54566;52.022;5.582;2022-08-14T10:14:20;7.85;;;4.70;;
67762;SDS011;54566;52.022;5.582;2022-08-14T10:16:49;7.10;;;4.55;;
67762;SDS011;54566;52.022;5.582;2022-08-14T10:19:18;12.40;;;4.68;;
67762;SDS011;54566;52.022;5.582;2022-08-14T10:24:25;6.72;;;4.50;;
67762;SDS011;54566;52.022;5.582;2022-08-14T10:26:53;7.10;;;3.90;;
67762;SDS011;54566;52.022;5.582;2022-08-14T10:29:28;7.00;;;3.90;;
67762;SDS011;54566;52.022;5.582;2022-08-14T10:31:56;16.13;;;4.20;;
67762;SDS011;54566;52.022;5.582;2022-08-14T10:34:29;7.32;;;3.72;;
67762;SDS011;54566;52.022;5.582;2022-08-14T10:37:01;5.57;;;3.70;;
67762;SDS011;54566;52.022;5.582;2022-08-14T10:39:28;6.07;;;4.00;;
67762;SDS011;54566;52.022;5.582;2022-08-14T10:42:33;4.80;;;3.33;;
67762;SDS011;54566;52.022;5.582;2022-08-14T10:44:46;9.07;;;3.42;;
67762;SDS011;54566;52.022;5.582;2022-08-14T10:47:13;8.88;;;3.25;;
67762;SDS011;54566;52.022;5.582;2022-08-14T10:49:42;7.80;;;3.45;;
67762;SDS011;54566;52.022;5.582;2022-08-14T10:52:21;8.98;;;3.80;;
67762;SDS011;54566;52.022;5.582;2022-08-14T10:54:48;6.78;;;3.78;;
67762;SDS011;54566;52.022;5.582;2022-08-14T11:04:38;6.80;;;3.40;;
67762;SDS011;54566;52.022;5.582;2022-08-14T11:07:12;7.85;;;3.20;;
67762;SDS011;54566;52.022;5.582;2022-08-14T11:09:38;4.18;;;3.50;;
67762;SDS011;54566;52.022;5.582;2022-08-14T11:12:04;9.70;;;3.70;;
67762;SDS011;54566;52.022;5.582;2022-08-14T11:14:30;6.18;;;3.08;;
67762;SDS011;54566;52.022;5.582;2022-08-14T11:16:56;4.85;;;3.15;;
67762;SDS011;54566;52.022;5.582;2022-08-14T11:19:22;10.05;;;3.00;;
67762;SDS011;54566;52.022;5.582;2022-08-14T11:21:48;10.20;;;3.67;;
67762;SDS011;54566;52.022;5.582;2022-08-14T11:24:15;5.07;;;2.97;;
67762;SDS011;54566;52.022;5.582;2022-08-14T11:26:43;4.55;;;2.97;;
67762;SDS011;54566;52.022;5.582;2022-08-14T11:29:09;3.87;;;2.70;;
67762;SDS011;54566;52.022;5.582;2022-08-14T11:31:36;6.05;;;2.70;;
67762;SDS011;54566;52.022;5.582;2022-08-14T11:34:02;2.92;;;2.53;;
67762;SDS011;54566;52.022;5.582;2022-08-14T11:36:28;2.53;;;2.33;;
67762;SDS011;54566;52.022;5.582;2022-08-14T11:38:55;8.07;;;2.92;;
67762;SDS011;54566;52.022;5.582;2022-08-14T11:41:22;6.43;;;3.38;;
67762;SDS011;54566;52.022;5.582;2022-08-14T11:43:51;4.55;;;3.22;;
67762;SDS011;54566;52.022;5.582;2022-08-14T11:46:19;7.78;;;3.33;;
67762;SDS011;54566;52.022;5.582;2022-08-14T11:48:46;8.68;;;3.25;;
67762;SDS011;54566;52.022;5.582;2022-08-14T11:53:38;7.45;;;2.88;;
67762;SDS011;54566;52.022;5.582;2022-08-14T11:56:08;4.35;;;3.00;;
67762;SDS011;54566;52.022;5.582;2022-08-14T12:01:01;3.92;;;3.25;;
67762;SDS011;54566;52.022;5.582;2022-08-14T12:06:04;6.03;;;3.00;;
67762;SDS011;54566;52.022;5.582;2022-08-14T12:08:36;4.53;;;3.10;;
67762;SDS011;54566;52.022;5.582;2022-08-14T12:11:03;7.05;;;3.20;;
67762;SDS011;54566;52.022;5.582;2022-08-14T12:13:31;5.38;;;3.10;;
67762;SDS011;54566;52.022;5.582;2022-08-14T12:15:58;6.07;;;3.10;;
67762;SDS011;54566;52.022;5.582;2022-08-14T12:18:29;3.63;;;3.13;;
67762;SDS011;54566;52.022;5.582;2022-08-14T12:20:56;8.20;;;3.35;;
67762;SDS011;54566;52.022;5.582;2022-08-14T12:23:23;7.77;;;3.40;;
67762;SDS011;54566;52.022;5.582;2022-08-14T12:26:00;7.50;;;3.67;;
67762;SDS011;54566;52.022;5.582;2022-08-14T12:30:52;4.00;;;3.00;;
67762;SDS011;54566;52.022;5.582;2022-08-14T12:33:20;7.35;;;3.00;;
67762;SDS011;54566;52.022;5.582;2022-08-14T12:35:46;4.70;;;3.20;;
67762;SDS011;54566;52.022;5.582;2022-08-14T12:38:14;6.20;;;2.95;;
67762;SDS011;54566;52.022;5.582;2022-08-14T12:40:53;6.95;;;2.80;;
67762;SDS011;54566;52.022;5.582;2022-08-14T12:43:19;10.80;;;2.90;;
67762;SDS011;54566;52.022;5.582;2022-08-14T12:45:49;7.00;;;2.80;;
67762;SDS011;54566;52.022;5.582;2022-08-14T12:48:16;5.28;;;2.50;;
67762;SDS011;54566;52.022;5.582;2022-08-14T12:50:43;5.22;;;3.00;;
67762;SDS011;54566;52.022;5.582;2022-08-14T12:53:10;3.03;;;2.65;;
67762;SDS011;54566;52.022;5.582;2022-08-14T12:55:37;4.55;;;3.15;;
67762;SDS011;54566;52.022;5.582;2022-08-14T12:58:04;7.43;;;3.00;;
67762;SDS011;54566;52.022;5.582;2022-08-14T13:02:56;6.88;;;3.15;;
67762;SDS011;54566;52.022;5.582;2022-08-14T13:05:23;9.70;;;3.15;;
67762;SDS011;54566;52.022;5.582;2022-08-14T13:07:49;6.32;;;2.92;;
67762;SDS011;54566;52.022;5.582;2022-08-14T13:12:42;7.22;;;3.10;;
67762;SDS011;54566;52.022;5.582;2022-08-14T13:15:10;6.43;;;2.95;;
67762;SDS011;54566;52.022;5.582;2022-08-14T13:17:43;5.00;;;3.00;;
67762;SDS011;54566;52.022;5.582;2022-08-14T13:20:11;3.60;;;2.97;;
67762;SDS011;54566;52.022;5.582;2022-08-14T13:22:38;3.28;;;2.97;;
67762;SDS011;54566;52.022;5.582;2022-08-14T13:25:05;5.05;;;3.45;;
67762;SDS011;54566;52.022;5.582;2022-08-14T13:30:00;5.25;;;3.08;;
67762;SDS011;54566;52.022;5.582;2022-08-14T13:32:28;6.15;;;3.30;;
67762;SDS011;54566;52.022;5.582;2022-08-14T13:34:54;6.20;;;3.33;;
67762;SDS011;54566;52.022;5.582;2022-08-14T13:37:20;4.30;;;3.33;;
67762;SDS011;54566;52.022;5.582;2022-08-14T13:39:46;8.30;;;2.77;;
67762;SDS011;54566;52.022;5.582;2022-08-14T13:42:13;4.85;;;2.80;;
67762;SDS011;54566;52.022;5.582;2022-08-14T13:44:41;3.55;;;2.78;;
67762;SDS011;54566;52.022;5.582;2022-08-14T13:47:09;5.43;;;3.17;;
67762;SDS011;54566;52.022;5.582;2022-08-14T13:49:35;6.28;;;3.30;;
67762;SDS011;54566;52.022;5.582;2022-08-14T13:52:04;7.13;;;3.35;;
67762;SDS011;54566;52.022;5.582;2022-08-14T13:54:30;3.90;;;3.20;;
67762;SDS011;54566;52.022;5.582;2022-08-14T13:56:59;6.90;;;2.92;;
67762;SDS011;54566;52.022;5.582;2022-08-14T13:59:28;6.97;;;3.28;;
67762;SDS011;54566;52.022;5.582;2022-08-14T14:01:56;4.45;;;3.22;;
67762;SDS011;54566;52.022;5.582;2022-08-14T14:04:24;3.88;;;3.28;;
67762;SDS011;54566;52.022;5.582;2022-08-14T14:09:20;4.03;;;3.38;;
67762;SDS011;54566;52.022;5.582;2022-08-14T14:11:46;6.22;;;3.50;;
67762;SDS011;54566;52.022;5.582;2022-08-14T14:14:12;7.20;;;3.40;;
67762;SDS011;54566;52.022;5.582;2022-08-14T14:16:39;13.82;;;3.30;;
67762;SDS011;54566;52.022;5.582;2022-08-14T14:19:05;3.95;;;3.15;;
67762;SDS011;54566;52.022;5.582;2022-08-14T14:26:24;5.35;;;3.13;;
67762;SDS011;54566;52.022;5.582;2022-08-14T14:31:19;4.00;;;3.20;;
67762;SDS011;54566;52.022;5.582;2022-08-14T14:33:48;5.28;;;2.97;;
67762;SDS011;54566;52.022;5.582;2022-08-14T14:36:23;9.18;;;3.22;;
67762;SDS011;54566;52.022;5.582;2022-08-14T14:39:01;3.72;;;3.25;;
67762;SDS011;54566;52.022;5.582;2022-08-14T14:41:28;3.47;;;3.10;;
67762;SDS011;54566;52.022;5.582;2022-08-14T14:43:54;7.65;;;3.03;;
67762;SDS011;54566;52.022;5.582;2022-08-14T14:46:23;8.13;;;3.40;;
67762;SDS011;54566;52.022;5.582;2022-08-14T14:51:15;5.45;;;2.92;;
67762;SDS011;54566;52.022;5.582;2022-08-14T14:53:42;3.55;;;2.97;;
67762;SDS011;54566;52.022;5.582;2022-08-14T14:56:09;6.53;;;3.53;;
67762;SDS011;54566;52.022;5.582;2022-08-14T14:58:35;3.38;;;3.08;;
67762;SDS011;54566;52.022;5.582;2022-08-14T15:01:03;4.97;;;2.90;;
67762;SDS011;54566;52.022;5.582;2022-08-14T15:03:29;5.32;;;2.95;;
67762;SDS011;54566;52.022;5.582;2022-08-14T15:05:55;4.07;;;3.30;;
67762;SDS011;54566;52.022;5.582;2022-08-14T15:08:21;4.43;;;3.30;;
67762;SDS011;54566;52.022;5.582;2022-08-14T15:10:47;4.30;;;3.00;;
67762;SDS011;54566;52.022;5.582;2022-08-14T15:13:13;4.03;;;2.97;;
67762;SDS011;54566;52.022;5.582;2022-08-14T15:18:06;4.75;;;3.05;;
67762;SDS011;54566;52.022;5.582;2022-08-14T15:20:32;3.65;;;2.92;;
67762;SDS011;54566;52.022;5.582;2022-08-14T15:22:58;4.70;;;2.83;;
67762;SDS011;54566;52.022;5.582;2022-08-14T15:27:55;5.63;;;3.22;;
67762;SDS011;54566;52.022;5.582;2022-08-14T15:30:21;4.93;;;3.08;;
67762;SDS011;54566;52.022;5.582;2022-08-14T15:32:47;5.83;;;3.00;;
67762;SDS011;54566;52.022;5.582;2022-08-14T15:35:13;3.80;;;3.13;;
67762;SDS011;54566;52.022;5.582;2022-08-14T15:37:39;5.37;;;3.03;;
67762;SDS011;54566;52.022;5.582;2022-08-14T15:40:05;3.13;;;2.83;;
67762;SDS011;54566;52.022;5.582;2022-08-14T15:42:32;5.82;;;3.40;;
67762;SDS011;54566;52.022;5.582;2022-08-14T15:45:02;6.18;;;3.58;;
67762;SDS011;54566;52.022;5.582;2022-08-14T15:47:29;4.85;;;3.03;;
67762;SDS011;54566;52.022;5.582;2022-08-14T15:49:58;3.55;;;3.25;;
67762;SDS011;54566;52.022;5.582;2022-08-14T15:52:24;4.57;;;3.20;;
67762;SDS011;54566;52.022;5.582;2022-08-14T15:54:50;6.20;;;3.50;;
67762;SDS011;54566;52.022;5.582;2022-08-14T15:57:16;8.67;;;3.20;;
67762;SDS011;54566;52.022;5.582;2022-08-14T15:59:45;6.82;;;3.30;;
67762;SDS011;54566;52.022;5.582;2022-08-14T16:02:29;7.38;;;3.65;;
67762;SDS011;54566;52.022;5.582;2022-08-14T16:04:55;8.50;;;4.37;;
67762;SDS011;54566;52.022;5.582;2022-08-14T16:07:22;6.97;;;3.60;;
67762;SDS011;54566;52.022;5.582;2022-08-14T16:09:48;6.28;;;3.30;;
67762;SDS011;54566;52.022;5.582;2022-08-14T16:12:15;8.33;;;3.30;;
67762;SDS011;54566;52.022;5.582;2022-08-14T16:14:41;4.80;;;3.30;;
67762;SDS011;54566;52.022;5.582;2022-08-14T16:17:07;6.17;;;3.33;;